KIRKWALL AIRPORT current weather conditions

sailwx.info

Wind from 280 at 14 knots

Air temperature 3.0° C
Visibility: greater than 5.4 NM
Dewpoint 1.0° C
Present weather: Light rain.

Last reported at 2015-Apr-27 02:20 UTC.
Time now 2015-Apr-27 04:07 UTC

Location: N 58°57' W 002°54'.
View on Google Maps.

See reports from other nearby stations

  
Tides and Currents Weather Stations Pressure Air Temp Water Temp Dewpoint Dewpoint Depression Visibility Wind Speed Wind Dir Waves Ship Positions
date/time (UTC)wind fromknots sea level pressurealtimeterstation pressurevisibilityair tempwater tempwave heightnotes
2015-Apr-27 03:20 290 7 4.9 3.0 Rain.
2015-Apr-27 02:50 260 12 5.4 3.0 Light drizzle.
2015-Apr-27 02:20 280 14 5.4 3.0 Light rain.
2015-Apr-27 01:50 270 10 5.4 3.0
2015-Apr-27 01:20 280 10 4.3 2.0 Light rain.
2015-Apr-27 00:50 270 10 5.4 2.0
2015-Apr-27 00:20 270 10 5.4 2.0
2015-Apr-26 23:50 270 13 5.4 2.0
2015-Apr-26 23:20 280 14 5.4 2.0
2015-Apr-26 22:50 280 11 5.4 2.0
2015-Apr-26 22:20 280 14 2.3 2.0 Drizzle.
2015-Apr-26 21:50 260 9 5.4 2.0
2015-Apr-26 21:20 270 8 5.4 2.0
2015-Apr-26 20:50 270 7 5.4 2.0
2015-Apr-26 20:20 280 8 5.4 2.0
2015-Apr-26 19:50 270 6 5.4 2.0
2015-Apr-26 19:20 270 7 5.4 2.0 Showers in the vicinity.
2015-Apr-26 18:50 290 8 4.3 2.0 Showers in the vicinity.
2015-Apr-26 18:20 290 16 0.5 1.0 Snow showers.
2015-Apr-26 17:50 310 17 2.2 4.0 Small hail/snow pellets showers.
2015-Apr-26 17:20 280 15 5.4 5.0
2015-Apr-26 16:50 290 14 5.4 5.0
2015-Apr-26 16:20 290 14 5.4 6.0
2015-Apr-26 15:50 290 15 5.4 6.0
2015-Apr-26 15:20 290 14 5.4 7.0
2015-Apr-26 14:50 300 16 5.4 6.0
2015-Apr-26 14:20 290 16 5.4 7.0
2015-Apr-26 13:50 300 14 5.4 6.0
2015-Apr-26 13:20 310 14 5.4 7.0
2015-Apr-26 12:50 320 15 5.4 7.0
2015-Apr-26 12:20 330 14 5.4 7.0
2015-Apr-26 11:50 320 15 5.4 7.0
2015-Apr-26 11:20 320 13 5.4 7.0
2015-Apr-26 10:50 320 13 5.4 7.0
2015-Apr-26 10:20 320 13 5.4 7.0
2015-Apr-26 09:50 330 13 5.4 7.0
2015-Apr-26 09:20 330 13 5.4 7.0
2015-Apr-26 08:50 340 14 5.4 7.0
2015-Apr-26 07:50 340 12 5.4 6.0
2015-Apr-26 07:20 340 15 5.4 5.0
2015-Apr-26 06:50 310 12 5.4 5.0 Light rain showers.
2015-Apr-26 06:20 340 14 5.4 6.0
2015-Apr-26 05:50 330 14 5.4 5.0
2015-Apr-26 05:20 280 4 5.4 4.0
2015-Apr-26 04:50 340 7 5.4 4.0
2015-Apr-26 04:20 300 7 5.4 4.0
2015-Apr-26 03:50 270 6 5.4 3.0
2015-Apr-26 03:20 290 8 5.4 3.0
2015-Apr-26 02:50 310 11 5.4 4.0
2015-Apr-26 02:20 280 7 5.4 4.0 Light drizzle.
2015-Apr-26 01:50 320 12 5.4 5.0
2015-Apr-26 01:20 330 16 5.4 5.0
2015-Apr-26 00:50 340 14 5.4 5.0
2015-Apr-26 00:20 340 13 5.4 5.0
2015-Apr-25 23:50 340 13 5.4 5.0
2015-Apr-25 23:20 320 10 5.4 5.0 Light drizzle.
2015-Apr-25 22:50 340 13 5.4 5.0
2015-Apr-25 22:20 350 20 4.3 4.0 Light rain.
2015-Apr-25 21:50 340 15 5.4 5.0
2015-Apr-25 21:20 350 17 5.4 5.0
2015-Apr-25 20:50 300 12 4.3 4.0
2015-Apr-25 20:20 290 11 5.4 4.0
2015-Apr-25 19:50 290 13 5.4 4.0
2015-Apr-25 19:20 290 12 5.4 4.0
2015-Apr-25 18:50 300 14 5.4 5.0 Light drizzle.
2015-Apr-25 18:20 280 14 5.4 5.0
2015-Apr-25 17:50 310 20 5.4 5.0 Light rain.
2015-Apr-25 17:20 300 18 5.4 6.0
2015-Apr-25 16:50 280 19 5.4 6.0
2015-Apr-25 16:20 300 23 gusting 33 5.4 6.0 Light small hail/snow pellets showers.
2015-Apr-25 15:50 300 22 5.4 7.0 Showers in the vicinity.
2015-Apr-25 15:20 280 20 gusting 31 5.4 7.0 Showers in the vicinity.
2015-Apr-25 14:50 300 20 5.4 7.0 Showers in the vicinity.
2015-Apr-25 14:20 300 22 5.4 7.0 Showers in the vicinity.
2015-Apr-25 13:50 300 22 5.4 7.0 Showers in the vicinity.
2015-Apr-25 13:20 300 22 5.4 8.0 Showers in the vicinity.
2015-Apr-25 12:50 310 23 5.4 8.0 Showers in the vicinity.
2015-Apr-25 12:20 310 20 5.4 8.0 Showers in the vicinity.
2015-Apr-25 11:50 310 19 gusting 34 5.4 6.0 Showers in the vicinity.
2015-Apr-25 11:20 300 22 5.4 8.0 Showers in the vicinity.
2015-Apr-25 10:50 290 20 5.4 7.0 Showers in the vicinity.
2015-Apr-25 10:20 300 16 5.4 5.0 Showers in the vicinity.
2015-Apr-25 09:50 300 16 5.4 7.0 Showers in the vicinity.
2015-Apr-25 09:20 300 15 5.4 6.0 Showers in the vicinity.
2015-Apr-25 08:50 300 17 5.4 5.0 Rain showers.
2015-Apr-25 08:20 290 17 5.4 7.0 Rain showers.
2015-Apr-25 07:50 300 16 5.4 6.0 Showers in the vicinity.
2015-Apr-25 07:20 270 12 5.4 5.0 Showers in the vicinity.
2015-Apr-25 06:50 270 13 5.4 4.0 Showers in the vicinity.
2015-Apr-25 06:20 270 8 5.4 4.0 Showers in the vicinity.
2015-Apr-25 05:50 270 8 5.4 3.0 Showers in the vicinity.
2015-Apr-25 05:20 250 5 5.4 1.0
2015-Apr-25 04:50 280 7 5.4 1.0
2015-Apr-25 04:20 300 6 5.4 3.0